Evansville Dress Regional Ai, Indiana
Current Conditions -  °F | °C
As of 4:54 AM on Wednesday 26 Nov 2014 (Local Time) from KEVV Reporting Station
Haze Haze  
Wind Chill: 25°   Ceiling: Unl
Heat Index: 25°   Visibility: 6mi
Dew Point: 21°   Wind: 3mph
Humidity: 85%   Direction: 40°NE
Pressure: 30.15"   Gusts: NA
Location:  38.0153°N, 87.5343°W
Report Text: KEVV 261054Z AUTO 04003KT 6SM BR CLR M04/M06 A3015 RMK AO2 SLP212 I1000 T10391061
Loading
Personal Weather Stations






























Interactive Weather Map New forecast layout! Learn more

10-Day Weather Forecast

Advertisements
Track Severe Weather on mobile